sensor_id;sensor_type;location;lat;lon;timestamp;temperature;humidity
74617;DHT22;63123;50.906;4.198;2023-10-08T00:00:44;20.70;66.30
74617;DHT22;63123;50.906;4.198;2023-10-08T00:03:15;20.70;66.30
74617;DHT22;63123;50.906;4.198;2023-10-08T00:05:43;20.70;66.20
74617;DHT22;63123;50.906;4.198;2023-10-08T00:08:09;20.70;66.20
74617;DHT22;63123;50.906;4.198;2023-10-08T00:10:39;20.70;66.10
74617;DHT22;63123;50.906;4.198;2023-10-08T00:13:09;20.70;66.20
74617;DHT22;63123;50.906;4.198;2023-10-08T00:15:36;20.70;66.30
74617;DHT22;63123;50.906;4.198;2023-10-08T00:18:03;20.70;66.10
74617;DHT22;63123;50.906;4.198;2023-10-08T00:20:34;20.70;66.20
74617;DHT22;63123;50.906;4.198;2023-10-08T00:23:09;20.70;66.20
74617;DHT22;63123;50.906;4.198;2023-10-08T00:25:35;20.70;66.20
74617;DHT22;63123;50.906;4.198;2023-10-08T00:28:07;20.70;66.30
74617;DHT22;63123;50.906;4.198;2023-10-08T00:30:38;20.70;66.00
74617;DHT22;63123;50.906;4.198;2023-10-08T00:33:04;20.70;66.10
74617;DHT22;63123;50.906;4.198;2023-10-08T00:35:30;20.70;66.70
74617;DHT22;63123;50.906;4.198;2023-10-08T00:37:56;20.70;66.10
74617;DHT22;63123;50.906;4.198;2023-10-08T00:40:36;20.70;66.20
74617;DHT22;63123;50.906;4.198;2023-10-08T00:43:03;20.70;66.10
74617;DHT22;63123;50.906;4.198;2023-10-08T00:45:36;20.70;66.10
74617;DHT22;63123;50.906;4.198;2023-10-08T00:48:09;20.70;66.10
74617;DHT22;63123;50.906;4.198;2023-10-08T00:50:35;20.70;66.00
74617;DHT22;63123;50.906;4.198;2023-10-08T00:53:11;20.70;66.10
74617;DHT22;63123;50.906;4.198;2023-10-08T00:55:48;20.70;66.00
74617;DHT22;63123;50.906;4.198;2023-10-08T00:58:31;20.70;66.10
74617;DHT22;63123;50.906;4.198;2023-10-08T01:00:59;20.70;66.10
74617;DHT22;63123;50.906;4.198;2023-10-08T01:03:28;20.70;66.10
74617;DHT22;63123;50.906;4.198;2023-10-08T01:05:54;20.70;66.10
74617;DHT22;63123;50.906;4.198;2023-10-08T01:08:23;20.70;66.00
74617;DHT22;63123;50.906;4.198;2023-10-08T01:11:20;20.70;66.00
74617;DHT22;63123;50.906;4.198;2023-10-08T01:14:12;20.70;66.00
74617;DHT22;63123;50.906;4.198;2023-10-08T01:16:38;20.70;66.00
74617;DHT22;63123;50.906;4.198;2023-10-08T01:19:06;20.70;65.90
74617;DHT22;63123;50.906;4.198;2023-10-08T01:21:39;20.60;65.90
74617;DHT22;63123;50.906;4.198;2023-10-08T01:24:07;20.70;66.00
74617;DHT22;63123;50.906;4.198;2023-10-08T01:26:34;20.70;66.00
74617;DHT22;63123;50.906;4.198;2023-10-08T01:29:00;20.70;66.00
74617;DHT22;63123;50.906;4.198;2023-10-08T01:31:30;20.70;65.90
74617;DHT22;63123;50.906;4.198;2023-10-08T01:33:57;20.70;66.00
74617;DHT22;63123;50.906;4.198;2023-10-08T01:36:24;20.70;66.00
74617;DHT22;63123;50.906;4.198;2023-10-08T01:38:51;20.70;65.90
74617;DHT22;63123;50.906;4.198;2023-10-08T01:41:17;20.70;65.90
74617;DHT22;63123;50.906;4.198;2023-10-08T01:43:47;20.70;65.90
74617;DHT22;63123;50.906;4.198;2023-10-08T01:46:13;20.70;65.90
74617;DHT22;63123;50.906;4.198;2023-10-08T01:48:41;20.70;65.90
74617;DHT22;63123;50.906;4.198;2023-10-08T01:51:10;20.70;65.80
74617;DHT22;63123;50.906;4.198;2023-10-08T01:53:37;20.70;65.80
74617;DHT22;63123;50.906;4.198;2023-10-08T01:56:06;20.70;65.90
74617;DHT22;63123;50.906;4.198;2023-10-08T01:58:32;20.70;65.80
74617;DHT22;63123;50.906;4.198;2023-10-08T02:01:00;20.70;65.80
74617;DHT22;63123;50.906;4.198;2023-10-08T02:03:26;20.70;65.70
74617;DHT22;63123;50.906;4.198;2023-10-08T02:05:55;20.70;65.80
74617;DHT22;63123;50.906;4.198;2023-10-08T02:08:24;20.70;65.80
74617;DHT22;63123;50.906;4.198;2023-10-08T02:10:51;20.70;66.40
74617;DHT22;63123;50.906;4.198;2023-10-08T02:13:18;20.70;66.00
74617;DHT22;63123;50.906;4.198;2023-10-08T02:15:45;20.70;65.80
74617;DHT22;63123;50.906;4.198;2023-10-08T02:18:13;20.70;65.80
74617;DHT22;63123;50.906;4.198;2023-10-08T02:20:42;20.70;65.70
74617;DHT22;63123;50.906;4.198;2023-10-08T02:23:08;20.70;65.80
74617;DHT22;63123;50.906;4.198;2023-10-08T02:25:37;20.70;65.80
74617;DHT22;63123;50.906;4.198;2023-10-08T02:28:04;20.70;65.80
74617;DHT22;63123;50.906;4.198;2023-10-08T02:30:29;20.70;65.80
74617;DHT22;63123;50.906;4.198;2023-10-08T02:32:55;20.70;65.80
74617;DHT22;63123;50.906;4.198;2023-10-08T02:35:21;20.70;65.80
74617;DHT22;63123;50.906;4.198;2023-10-08T02:37:47;20.70;65.80
74617;DHT22;63123;50.906;4.198;2023-10-08T02:40:14;20.70;65.80
74617;DHT22;63123;50.906;4.198;2023-10-08T02:42:53;20.70;65.80
74617;DHT22;63123;50.906;4.198;2023-10-08T02:45:29;20.70;65.90
74617;DHT22;63123;50.906;4.198;2023-10-08T02:47:56;20.70;65.80
74617;DHT22;63123;50.906;4.198;2023-10-08T02:50:22;20.70;65.70
74617;DHT22;63123;50.906;4.198;2023-10-08T02:52:51;20.70;65.70
74617;DHT22;63123;50.906;4.198;2023-10-08T02:55:17;20.70;65.80
74617;DHT22;63123;50.906;4.198;2023-10-08T02:57:54;20.70;65.70
74617;DHT22;63123;50.906;4.198;2023-10-08T03:00:21;20.70;65.80
74617;DHT22;63123;50.906;4.198;2023-10-08T03:02:47;20.70;65.80
74617;DHT22;63123;50.906;4.198;2023-10-08T03:05:13;20.70;65.80
74617;DHT22;63123;50.906;4.198;2023-10-08T03:07:42;20.60;65.60
74617;DHT22;63123;50.906;4.198;2023-10-08T03:10:08;20.70;65.70
74617;DHT22;63123;50.906;4.198;2023-10-08T03:12:46;20.70;65.80
74617;DHT22;63123;50.906;4.198;2023-10-08T03:15:13;20.70;65.80
74617;DHT22;63123;50.906;4.198;2023-10-08T03:17:43;20.60;65.70
74617;DHT22;63123;50.906;4.198;2023-10-08T03:20:17;20.70;65.70
74617;DHT22;63123;50.906;4.198;2023-10-08T03:23:06;20.60;65.70
74617;DHT22;63123;50.906;4.198;2023-10-08T03:25:41;20.70;65.80
74617;DHT22;63123;50.906;4.198;2023-10-08T03:28:11;20.70;65.80
74617;DHT22;63123;50.906;4.198;2023-10-08T03:30:39;20.70;65.80
74617;DHT22;63123;50.906;4.198;2023-10-08T03:33:18;20.70;65.80
74617;DHT22;63123;50.906;4.198;2023-10-08T03:35:52;20.70;65.80
74617;DHT22;63123;50.906;4.198;2023-10-08T03:38:21;20.70;65.80
74617;DHT22;63123;50.906;4.198;2023-10-08T03:40:54;20.70;65.80
74617;DHT22;63123;50.906;4.198;2023-10-08T03:43:23;20.70;65.80
74617;DHT22;63123;50.906;4.198;2023-10-08T03:45:59;20.70;65.70
74617;DHT22;63123;50.906;4.198;2023-10-08T03:48:26;20.70;65.80
74617;DHT22;63123;50.906;4.198;2023-10-08T03:50:55;20.70;65.70
74617;DHT22;63123;50.906;4.198;2023-10-08T03:53:32;20.70;65.70
74617;DHT22;63123;50.906;4.198;2023-10-08T03:56:03;20.60;65.60
74617;DHT22;63123;50.906;4.198;2023-10-08T03:58:31;20.60;65.60
74617;DHT22;63123;50.906;4.198;2023-10-08T04:01:02;20.70;65.70
74617;DHT22;63123;50.906;4.198;2023-10-08T04:03:36;20.70;65.70
74617;DHT22;63123;50.906;4.198;2023-10-08T04:06:23;20.70;65.70
74617;DHT22;63123;50.906;4.198;2023-10-08T04:08:54;20.70;65.70
74617;DHT22;63123;50.906;4.198;2023-10-08T04:11:36;20.70;65.70
74617;DHT22;63123;50.906;4.198;2023-10-08T04:14:09;20.70;65.70
74617;DHT22;63123;50.906;4.198;2023-10-08T04:16:34;20.70;65.70
74617;DHT22;63123;50.906;4.198;2023-10-08T04:19:04;20.70;65.30
74617;DHT22;63123;50.906;4.198;2023-10-08T04:21:30;20.70;65.70
74617;DHT22;63123;50.906;4.198;2023-10-08T04:23:59;20.60;65.60
74617;DHT22;63123;50.906;4.198;2023-10-08T04:26:30;20.60;65.60
74617;DHT22;63123;50.906;4.198;2023-10-08T04:28:58;20.70;65.70
74617;DHT22;63123;50.906;4.198;2023-10-08T04:31:27;20.70;65.70
74617;DHT22;63123;50.906;4.198;2023-10-08T04:34:02;20.70;65.70
74617;DHT22;63123;50.906;4.198;2023-10-08T04:36:33;20.60;65.60
74617;DHT22;63123;50.906;4.198;2023-10-08T04:38:59;20.70;65.60
74617;DHT22;63123;50.906;4.198;2023-10-08T04:41:30;20.60;65.60
74617;DHT22;63123;50.906;4.198;2023-10-08T04:43:56;20.60;65.60
74617;DHT22;63123;50.906;4.198;2023-10-08T04:46:22;20.70;65.70
74617;DHT22;63123;50.906;4.198;2023-10-08T04:49:12;20.70;65.60
74617;DHT22;63123;50.906;4.198;2023-10-08T04:51:58;20.60;65.60
74617;DHT22;63123;50.906;4.198;2023-10-08T04:54:28;20.60;65.60
74617;DHT22;63123;50.906;4.198;2023-10-08T04:57:00;20.70;65.60
74617;DHT22;63123;50.906;4.198;2023-10-08T04:59:28;20.70;65.60
74617;DHT22;63123;50.906;4.198;2023-10-08T05:02:04;20.70;65.70
74617;DHT22;63123;50.906;4.198;2023-10-08T05:04:51;20.70;65.70
74617;DHT22;63123;50.906;4.198;2023-10-08T05:07:20;20.60;65.60
74617;DHT22;63123;50.906;4.198;2023-10-08T05:10:04;20.60;65.60
74617;DHT22;63123;50.906;4.198;2023-10-08T05:12:33;20.60;65.60
74617;DHT22;63123;50.906;4.198;2023-10-08T05:14:59;20.70;65.60
74617;DHT22;63123;50.906;4.198;2023-10-08T05:17:44;20.60;65.60
74617;DHT22;63123;50.906;4.198;2023-10-08T05:20:16;20.70;65.50
74617;DHT22;63123;50.906;4.198;2023-10-08T05:22:56;20.60;65.60
74617;DHT22;63123;50.906;4.198;2023-10-08T05:25:31;20.60;65.50
74617;DHT22;63123;50.906;4.198;2023-10-08T05:28:23;20.70;65.60
74617;DHT22;63123;50.906;4.198;2023-10-08T05:30:52;20.70;65.60
74617;DHT22;63123;50.906;4.198;2023-10-08T05:33:37;20.70;65.60
74617;DHT22;63123;50.906;4.198;2023-10-08T05:36:31;20.70;65.60
74617;DHT22;63123;50.906;4.198;2023-10-08T05:39:16;20.60;65.50
74617;DHT22;63123;50.906;4.198;2023-10-08T05:42:10;20.70;65.60
74617;DHT22;63123;50.906;4.198;2023-10-08T05:44:43;20.70;65.60
74617;DHT22;63123;50.906;4.198;2023-10-08T05:47:32;20.60;65.50
74617;DHT22;63123;50.906;4.198;2023-10-08T05:50:01;20.60;65.60
74617;DHT22;63123;50.906;4.198;2023-10-08T05:52:46;20.60;65.50
74617;DHT22;63123;50.906;4.198;2023-10-08T05:55:31;20.70;65.60
74617;DHT22;63123;50.906;4.198;2023-10-08T05:58:04;20.70;65.50
74617;DHT22;63123;50.906;4.198;2023-10-08T06:00:46;20.70;65.50
74617;DHT22;63123;50.906;4.198;2023-10-08T06:03:31;20.60;65.60
74617;DHT22;63123;50.906;4.198;2023-10-08T06:06:01;20.70;65.50
74617;DHT22;63123;50.906;4.198;2023-10-08T06:08:40;20.60;65.50
74617;DHT22;63123;50.906;4.198;2023-10-08T06:11:20;20.60;65.50
74617;DHT22;63123;50.906;4.198;2023-10-08T06:14:05;20.60;65.50
74617;DHT22;63123;50.906;4.198;2023-10-08T06:16:53;20.70;65.50
74617;DHT22;63123;50.906;4.198;2023-10-08T06:19:39;20.70;66.10
74617;DHT22;63123;50.906;4.198;2023-10-08T06:22:04;20.70;65.50
74617;DHT22;63123;50.906;4.198;2023-10-08T06:24:30;20.60;65.50
74617;DHT22;63123;50.906;4.198;2023-10-08T06:26:58;20.70;65.50
74617;DHT22;63123;50.906;4.198;2023-10-08T06:29:30;20.60;65.50
74617;DHT22;63123;50.906;4.198;2023-10-08T06:31:57;20.60;65.40
74617;DHT22;63123;50.906;4.198;2023-10-08T06:34:28;20.70;65.50
74617;DHT22;63123;50.906;4.198;2023-10-08T06:36:56;20.60;65.40
74617;DHT22;63123;50.906;4.198;2023-10-08T06:39:22;20.70;65.50
74617;DHT22;63123;50.906;4.198;2023-10-08T06:41:54;20.60;65.50
74617;DHT22;63123;50.906;4.198;2023-10-08T06:44:24;20.70;65.50
74617;DHT22;63123;50.906;4.198;2023-10-08T06:46:49;20.60;65.40
74617;DHT22;63123;50.906;4.198;2023-10-08T06:49:18;20.70;65.50
74617;DHT22;63123;50.906;4.198;2023-10-08T06:51:44;20.70;65.50
74617;DHT22;63123;50.906;4.198;2023-10-08T06:54:10;20.60;65.50
74617;DHT22;63123;50.906;4.198;2023-10-08T06:56:42;20.60;65.50
74617;DHT22;63123;50.906;4.198;2023-10-08T06:59:15;20.70;65.50
74617;DHT22;63123;50.906;4.198;2023-10-08T07:01:42;20.70;65.50
74617;DHT22;63123;50.906;4.198;2023-10-08T07:04:12;20.70;65.50
74617;DHT22;63123;50.906;4.198;2023-10-08T07:06:44;20.60;65.50
74617;DHT22;63123;50.906;4.198;2023-10-08T07:09:12;20.60;65.50
74617;DHT22;63123;50.906;4.198;2023-10-08T07:11:54;20.60;65.50
74617;DHT22;63123;50.906;4.198;2023-10-08T07:14:27;20.60;65.50
74617;DHT22;63123;50.906;4.198;2023-10-08T07:17:00;20.60;65.50
74617;DHT22;63123;50.906;4.198;2023-10-08T07:19:27;20.60;65.50
74617;DHT22;63123;50.906;4.198;2023-10-08T07:22:01;20.60;65.50
74617;DHT22;63123;50.906;4.198;2023-10-08T07:24:47;20.60;65.50
74617;DHT22;63123;50.906;4.198;2023-10-08T07:27:17;20.70;65.20
74617;DHT22;63123;50.906;4.198;2023-10-08T07:29:47;20.70;65.10
74617;DHT22;63123;50.906;4.198;2023-10-08T07:32:13;20.70;65.10
74617;DHT22;63123;50.906;4.198;2023-10-08T07:34:44;20.70;65.10
74617;DHT22;63123;50.906;4.198;2023-10-08T07:37:09;20.70;65.10
74617;DHT22;63123;50.906;4.198;2023-10-08T07:39:37;20.70;65.10
74617;DHT22;63123;50.906;4.198;2023-10-08T07:42:11;20.70;65.00
74617;DHT22;63123;50.906;4.198;2023-10-08T07:44:37;20.70;65.00
74617;DHT22;63123;50.906;4.198;2023-10-08T07:47:05;20.70;65.10
74617;DHT22;63123;50.906;4.198;2023-10-08T07:49:35;20.70;65.00
74617;DHT22;63123;50.906;4.198;2023-10-08T07:52:02;20.60;64.90
74617;DHT22;63123;50.906;4.198;2023-10-08T07:54:31;20.70;64.90
74617;DHT22;63123;50.906;4.198;2023-10-08T07:57:01;20.70;65.10
74617;DHT22;63123;50.906;4.198;2023-10-08T07:59:39;20.70;65.00
74617;DHT22;63123;50.906;4.198;2023-10-08T08:02:08;20.70;65.10
74617;DHT22;63123;50.906;4.198;2023-10-08T08:04:41;20.70;65.60
74617;DHT22;63123;50.906;4.198;2023-10-08T08:07:09;20.70;65.10
74617;DHT22;63123;50.906;4.198;2023-10-08T08:09:42;20.60;65.00
74617;DHT22;63123;50.906;4.198;2023-10-08T08:12:19;20.70;65.10
74617;DHT22;63123;50.906;4.198;2023-10-08T08:14:47;20.70;65.10
74617;DHT22;63123;50.906;4.198;2023-10-08T08:17:14;20.70;65.10
74617;DHT22;63123;50.906;4.198;2023-10-08T08:19:44;20.70;65.00
74617;DHT22;63123;50.906;4.198;2023-10-08T08:22:11;20.70;65.00
74617;DHT22;63123;50.906;4.198;2023-10-08T08:24:41;20.70;65.10
74617;DHT22;63123;50.906;4.198;2023-10-08T08:27:10;20.70;65.10
74617;DHT22;63123;50.906;4.198;2023-10-08T08:29:57;20.70;65.10
74617;DHT22;63123;50.906;4.198;2023-10-08T08:32:35;20.60;65.00
74617;DHT22;63123;50.906;4.198;2023-10-08T08:35:07;20.70;65.10
74617;DHT22;63123;50.906;4.198;2023-10-08T08:37:33;20.70;65.10
74617;DHT22;63123;50.906;4.198;2023-10-08T08:40:04;20.70;65.10
74617;DHT22;63123;50.906;4.198;2023-10-08T08:42:45;20.70;64.90
74617;DHT22;63123;50.906;4.198;2023-10-08T08:45:19;20.70;64.80
74617;DHT22;63123;50.906;4.198;2023-10-08T08:47:45;20.70;64.80
74617;DHT22;63123;50.906;4.198;2023-10-08T08:50:11;20.70;64.80
74617;DHT22;63123;50.906;4.198;2023-10-08T08:52:38;20.70;65.00
74617;DHT22;63123;50.906;4.198;2023-10-08T08:55:08;20.70;65.00
74617;DHT22;63123;50.906;4.198;2023-10-08T08:57:44;20.70;65.00
74617;DHT22;63123;50.906;4.198;2023-10-08T09:00:14;20.70;65.10
74617;DHT22;63123;50.906;4.198;2023-10-08T09:02:41;20.70;65.10
74617;DHT22;63123;50.906;4.198;2023-10-08T09:05:07;20.70;65.10
74617;DHT22;63123;50.906;4.198;2023-10-08T09:07:58;20.70;65.70
74617;DHT22;63123;50.906;4.198;2023-10-08T09:10:25;20.70;65.10
74617;DHT22;63123;50.906;4.198;2023-10-08T09:12:54;20.70;65.10
74617;DHT22;63123;50.906;4.198;2023-10-08T09:15:24;20.70;65.10
74617;DHT22;63123;50.906;4.198;2023-10-08T09:17:52;20.70;65.10
74617;DHT22;63123;50.906;4.198;2023-10-08T09:20:17;20.70;65.20
74617;DHT22;63123;50.906;4.198;2023-10-08T09:22:45;20.70;65.20
74617;DHT22;63123;50.906;4.198;2023-10-08T09:25:24;20.70;65.20
74617;DHT22;63123;50.906;4.198;2023-10-08T09:27:55;20.70;65.20
74617;DHT22;63123;50.906;4.198;2023-10-08T09:30:21;20.70;65.30
74617;DHT22;63123;50.906;4.198;2023-10-08T09:32:47;20.70;65.30
74617;DHT22;63123;50.906;4.198;2023-10-08T09:35:15;20.70;65.90
74617;DHT22;63123;50.906;4.198;2023-10-08T09:37:41;20.70;65.30
74617;DHT22;63123;50.906;4.198;2023-10-08T09:40:08;20.70;65.30
74617;DHT22;63123;50.906;4.198;2023-10-08T09:42:36;20.70;65.30
74617;DHT22;63123;50.906;4.198;2023-10-08T09:45:03;20.70;65.40
74617;DHT22;63123;50.906;4.198;2023-10-08T09:47:31;20.70;65.30
74617;DHT22;63123;50.906;4.198;2023-10-08T09:50:03;20.70;65.30
74617;DHT22;63123;50.906;4.198;2023-10-08T09:52:43;20.70;65.30
74617;DHT22;63123;50.906;4.198;2023-10-08T09:55:13;20.70;65.40
74617;DHT22;63123;50.906;4.198;2023-10-08T09:57:42;20.70;65.40
74617;DHT22;63123;50.906;4.198;2023-10-08T10:00:08;20.70;65.40
74617;DHT22;63123;50.906;4.198;2023-10-08T10:02:43;20.70;65.40
74617;DHT22;63123;50.906;4.198;2023-10-08T10:05:13;20.70;65.40
74617;DHT22;63123;50.906;4.198;2023-10-08T10:07:44;20.70;65.40
74617;DHT22;63123;50.906;4.198;2023-10-08T10:10:29;20.70;65.50
74617;DHT22;63123;50.906;4.198;2023-10-08T10:13:02;20.70;65.50
74617;DHT22;63123;50.906;4.198;2023-10-08T10:15:28;20.70;65.50
74617;DHT22;63123;50.906;4.198;2023-10-08T10:18:14;20.70;65.50
74617;DHT22;63123;50.906;4.198;2023-10-08T10:21:24;20.70;65.50
74617;DHT22;63123;50.906;4.198;2023-10-08T10:23:47;20.70;65.60
74617;DHT22;63123;50.906;4.198;2023-10-08T10:26:33;20.70;65.60
74617;DHT22;63123;50.906;4.198;2023-10-08T10:31:42;20.80;65.70
74617;DHT22;63123;50.906;4.198;2023-10-08T10:34:16;20.70;65.60
74617;DHT22;63123;50.906;4.198;2023-10-08T10:36:44;20.80;65.70
74617;DHT22;63123;50.906;4.198;2023-10-08T10:39:17;20.70;65.60
74617;DHT22;63123;50.906;4.198;2023-10-08T10:41:52;20.70;65.70
74617;DHT22;63123;50.906;4.198;2023-10-08T10:44:26;20.80;65.80
74617;DHT22;63123;50.906;4.198;2023-10-08T10:46:52;20.70;65.70
74617;DHT22;63123;50.906;4.198;2023-10-08T10:49:38;20.70;65.80
74617;DHT22;63123;50.906;4.198;2023-10-08T10:52:28;20.70;65.80
74617;DHT22;63123;50.906;4.198;2023-10-08T10:55:05;20.70;65.80
74617;DHT22;63123;50.906;4.198;2023-10-08T10:57:56;20.80;65.90
74617;DHT22;63123;50.906;4.198;2023-10-08T11:00:29;20.80;66.50
74617;DHT22;63123;50.906;4.198;2023-10-08T11:02:59;20.80;65.90
74617;DHT22;63123;50.906;4.198;2023-10-08T11:05:34;20.80;65.90
74617;DHT22;63123;50.906;4.198;2023-10-08T11:08:03;20.80;66.00
74617;DHT22;63123;50.906;4.198;2023-10-08T11:10:31;20.80;66.00
74617;DHT22;63123;50.906;4.198;2023-10-08T11:12:57;20.70;66.00
74617;DHT22;63123;50.906;4.198;2023-10-08T11:15:27;20.80;66.00
74617;DHT22;63123;50.906;4.198;2023-10-08T11:18:07;20.80;66.00
74617;DHT22;63123;50.906;4.198;2023-10-08T11:20:34;20.80;66.10
74617;DHT22;63123;50.906;4.198;2023-10-08T11:23:06;20.80;66.10
74617;DHT22;63123;50.906;4.198;2023-10-08T11:25:56;20.80;66.20
74617;DHT22;63123;50.906;4.198;2023-10-08T11:28:36;20.70;66.10
74617;DHT22;63123;50.906;4.198;2023-10-08T11:31:09;20.80;66.20
74617;DHT22;63123;50.906;4.198;2023-10-08T11:33:42;20.80;66.10
74617;DHT22;63123;50.906;4.198;2023-10-08T11:36:17;20.80;66.20
74617;DHT22;63123;50.906;4.198;2023-10-08T11:38:50;20.80;66.20
74617;DHT22;63123;50.906;4.198;2023-10-08T11:41:19;20.80;66.30
74617;DHT22;63123;50.906;4.198;2023-10-08T11:43:51;20.80;66.30
74617;DHT22;63123;50.906;4.198;2023-10-08T11:46:23;20.80;66.30
74617;DHT22;63123;50.906;4.198;2023-10-08T11:48:51;20.80;66.30
74617;DHT22;63123;50.906;4.198;2023-10-08T11:51:17;20.80;66.30
74617;DHT22;63123;50.906;4.198;2023-10-08T11:53:46;20.80;66.30
74617;DHT22;63123;50.906;4.198;2023-10-08T11:56:12;20.80;66.30
74617;DHT22;63123;50.906;4.198;2023-10-08T11:58:41;20.80;66.30
74617;DHT22;63123;50.906;4.198;2023-10-08T12:01:11;20.80;66.30
74617;DHT22;63123;50.906;4.198;2023-10-08T12:03:41;20.80;66.40
74617;DHT22;63123;50.906;4.198;2023-10-08T12:06:09;20.80;66.40
74617;DHT22;63123;50.906;4.198;2023-10-08T12:08:36;20.80;66.40
74617;DHT22;63123;50.906;4.198;2023-10-08T12:11:05;20.80;66.40
74617;DHT22;63123;50.906;4.198;2023-10-08T12:13:37;20.80;66.40
74617;DHT22;63123;50.906;4.198;2023-10-08T12:16:03;20.80;66.50
74617;DHT22;63123;50.906;4.198;2023-10-08T12:18:34;20.70;66.40
74617;DHT22;63123;50.906;4.198;2023-10-08T12:21:05;20.80;66.50
74617;DHT22;63123;50.906;4.198;2023-10-08T12:23:39;20.80;66.50
74617;DHT22;63123;50.906;4.198;2023-10-08T12:26:04;20.80;66.50
74617;DHT22;63123;50.906;4.198;2023-10-08T12:28:33;20.80;66.50
74617;DHT22;63123;50.906;4.198;2023-10-08T12:31:00;20.80;66.50
74617;DHT22;63123;50.906;4.198;2023-10-08T12:33:26;20.80;66.60
74617;DHT22;63123;50.906;4.198;2023-10-08T12:35:52;20.80;66.60
74617;DHT22;63123;50.906;4.198;2023-10-08T12:38:24;20.80;66.60
74617;DHT22;63123;50.906;4.198;2023-10-08T12:40:53;20.80;66.60
74617;DHT22;63123;50.906;4.198;2023-10-08T12:43:20;20.80;66.60
74617;DHT22;63123;50.906;4.198;2023-10-08T12:45:49;20.80;66.60
74617;DHT22;63123;50.906;4.198;2023-10-08T12:48:23;20.80;66.60
74617;DHT22;63123;50.906;4.198;2023-10-08T12:50:50;20.80;66.60
74617;DHT22;63123;50.906;4.198;2023-10-08T12:53:23;20.80;66.60
74617;DHT22;63123;50.906;4.198;2023-10-08T12:55:53;20.80;66.70
74617;DHT22;63123;50.906;4.198;2023-10-08T12:58:20;20.80;66.60
74617;DHT22;63123;50.906;4.198;2023-10-08T13:00:53;20.80;66.60
74617;DHT22;63123;50.906;4.198;2023-10-08T13:03:29;20.80;66.70
74617;DHT22;63123;50.906;4.198;2023-10-08T13:05:59;20.80;66.70
74617;DHT22;63123;50.906;4.198;2023-10-08T13:08:37;20.80;66.60
74617;DHT22;63123;50.906;4.198;2023-10-08T13:11:03;20.80;66.70
74617;DHT22;63123;50.906;4.198;2023-10-08T13:13:30;20.80;66.70
74617;DHT22;63123;50.906;4.198;2023-10-08T13:15:56;20.80;66.70
74617;DHT22;63123;50.906;4.198;2023-10-08T13:18:25;20.80;66.70
74617;DHT22;63123;50.906;4.198;2023-10-08T13:20:52;20.80;66.70
74617;DHT22;63123;50.906;4.198;2023-10-08T13:23:18;20.80;66.70
74617;DHT22;63123;50.906;4.198;2023-10-08T13:25:55;20.80;66.70
74617;DHT22;63123;50.906;4.198;2023-10-08T13:28:21;20.80;66.70
74617;DHT22;63123;50.906;4.198;2023-10-08T13:30:51;20.80;66.70
74617;DHT22;63123;50.906;4.198;2023-10-08T13:33:21;20.80;66.80
74617;DHT22;63123;50.906;4.198;2023-10-08T13:35:51;20.80;66.80
74617;DHT22;63123;50.906;4.198;2023-10-08T13:38:20;20.80;66.80
74617;DHT22;63123;50.906;4.198;2023-10-08T13:40:49;20.80;66.80
74617;DHT22;63123;50.906;4.198;2023-10-08T13:43:41;20.80;66.80
74617;DHT22;63123;50.906;4.198;2023-10-08T13:46:09;20.80;66.70
74617;DHT22;63123;50.906;4.198;2023-10-08T13:48:39;20.80;66.80
74617;DHT22;63123;50.906;4.198;2023-10-08T13:51:07;20.80;66.80
74617;DHT22;63123;50.906;4.198;2023-10-08T13:53:40;20.80;66.80
74617;DHT22;63123;50.906;4.198;2023-10-08T13:56:06;20.80;66.80
74617;DHT22;63123;50.906;4.198;2023-10-08T13:58:32;20.80;66.80
74617;DHT22;63123;50.906;4.198;2023-10-08T14:01:01;20.80;66.80
74617;DHT22;63123;50.906;4.198;2023-10-08T14:03:30;20.80;66.80
74617;DHT22;63123;50.906;4.198;2023-10-08T14:06:00;20.80;66.90
74617;DHT22;63123;50.906;4.198;2023-10-08T14:08:30;20.80;66.90
74617;DHT22;63123;50.906;4.198;2023-10-08T14:10:57;20.80;66.90
74617;DHT22;63123;50.906;4.198;2023-10-08T14:13:30;20.80;66.90
74617;DHT22;63123;50.906;4.198;2023-10-08T14:15:57;20.80;66.90
74617;DHT22;63123;50.906;4.198;2023-10-08T14:18:24;20.80;66.90
74617;DHT22;63123;50.906;4.198;2023-10-08T14:20:55;20.80;66.90
74617;DHT22;63123;50.906;4.198;2023-10-08T14:23:22;20.80;66.90
74617;DHT22;63123;50.906;4.198;2023-10-08T14:25:51;20.80;66.90
74617;DHT22;63123;50.906;4.198;2023-10-08T14:28:18;20.80;66.90
74617;DHT22;63123;50.906;4.198;2023-10-08T14:31:07;20.80;66.90
74617;DHT22;63123;50.906;4.198;2023-10-08T14:33:32;20.80;66.90
74617;DHT22;63123;50.906;4.198;2023-10-08T14:36:07;20.80;66.90
74617;DHT22;63123;50.906;4.198;2023-10-08T14:38:51;20.80;66.90
74617;DHT22;63123;50.906;4.198;2023-10-08T14:41:35;20.80;66.90
74617;DHT22;63123;50.906;4.198;2023-10-08T14:44:19;20.80;66.90
74617;DHT22;63123;50.906;4.198;2023-10-08T14:46:45;20.80;67.00
74617;DHT22;63123;50.906;4.198;2023-10-08T14:49:10;20.80;67.00
74617;DHT22;63123;50.906;4.198;2023-10-08T14:51:37;20.80;66.90
74617;DHT22;63123;50.906;4.198;2023-10-08T14:54:06;20.80;67.00
74617;DHT22;63123;50.906;4.198;2023-10-08T14:56:35;20.80;67.00
74617;DHT22;63123;50.906;4.198;2023-10-08T14:59:02;20.80;67.00
74617;DHT22;63123;50.906;4.198;2023-10-08T15:01:29;20.80;67.00
74617;DHT22;63123;50.906;4.198;2023-10-08T15:03:59;20.80;67.00
74617;DHT22;63123;50.906;4.198;2023-10-08T15:06:29;20.80;67.10
74617;DHT22;63123;50.906;4.198;2023-10-08T15:08:55;20.80;67.10
74617;DHT22;63123;50.906;4.198;2023-10-08T15:11:23;20.80;67.00
74617;DHT22;63123;50.906;4.198;2023-10-08T15:13:48;20.80;67.10
74617;DHT22;63123;50.906;4.198;2023-10-08T15:16:22;20.80;67.10
74617;DHT22;63123;50.906;4.198;2023-10-08T15:18:49;20.80;67.00
74617;DHT22;63123;50.906;4.198;2023-10-08T15:21:16;20.80;67.10
74617;DHT22;63123;50.906;4.198;2023-10-08T15:23:43;20.80;67.10
74617;DHT22;63123;50.906;4.198;2023-10-08T15:26:10;20.80;67.10
74617;DHT22;63123;50.906;4.198;2023-10-08T15:28:37;20.80;67.10
74617;DHT22;63123;50.906;4.198;2023-10-08T15:31:04;20.80;67.10
74617;DHT22;63123;50.906;4.198;2023-10-08T15:33:29;20.80;67.10
74617;DHT22;63123;50.906;4.198;2023-10-08T15:35:55;20.80;67.20
74617;DHT22;63123;50.906;4.198;2023-10-08T15:38:22;20.80;67.20
74617;DHT22;63123;50.906;4.198;2023-10-08T15:40:48;20.80;67.20
74617;DHT22;63123;50.906;4.198;2023-10-08T15:43:15;20.80;67.20
74617;DHT22;63123;50.906;4.198;2023-10-08T15:45:40;20.80;67.30
74617;DHT22;63123;50.906;4.198;2023-10-08T15:48:07;20.80;67.20
74617;DHT22;63123;50.906;4.198;2023-10-08T15:50:34;20.80;67.30
74617;DHT22;63123;50.906;4.198;2023-10-08T15:52:59;20.80;67.20
74617;DHT22;63123;50.906;4.198;2023-10-08T15:55:25;20.80;67.30
74617;DHT22;63123;50.906;4.198;2023-10-08T15:57:51;20.80;67.30